Time;durP1;ratioP1;P1;durP2;ratioP2;P2;SDS_P1;SDS_P2;PMS_P1;PMS_P2;Temp;Humidity;BMP_temperature;BMP_pressure;BME280_temperature;BME280_humidity;BME280_pressure;Samples;Min_cycle;Max_cycle;Signal;HPM_P1;HPM_P2
2023/08/07 00:01:46;;;;;;;2.93;1.10;;;;;;;14.07;100.00;98517.53;4207688;28;20234;-72
2023/08/07 00:04:13;;;;;;;3.77;0.90;;;;;;;14.01;100.00;98529.28;4200292;28;20232;-73
2023/08/07 00:06:40;;;;;;;4.23;1.23;;;;;;;14.10;100.00;98536.13;4218949;28;20240;-71
2023/08/07 00:09:07;;;;;;;4.03;1.30;;;;;;;14.09;100.00;98540.75;4217250;28;20250;-71
2023/08/07 00:11:33;;;;;;;4.80;1.87;;;;;;;14.12;100.00;98544.09;4190096;28;21525;-72
2023/08/07 00:14:00;;;;;;;1.90;1.20;;;;;;;14.05;100.00;98544.13;4205682;28;22591;-72
2023/08/07 00:16:27;;;;;;;0.80;0.70;;;;;;;14.07;100.00;98545.56;4229090;28;20243;-71
2023/08/07 00:18:55;;;;;;;0.90;0.70;;;;;;;13.99;100.00;98556.69;4232383;28;21452;-70
2023/08/07 00:21:23;;;;;;;0.73;0.60;;;;;;;13.92;100.00;98542.28;4224604;28;20591;-72
2023/08/07 00:23:50;;;;;;;0.80;0.60;;;;;;;13.91;100.00;98555.06;4214378;28;20417;-73
2023/08/07 00:26:16;;;;;;;2.60;1.10;;;;;;;13.78;100.00;98555.13;4213662;28;21797;-71
2023/08/07 00:28:43;;;;;;;4.23;1.00;;;;;;;13.85;100.00;98545.06;4224203;28;20306;-71
2023/08/07 00:31:10;;;;;;;2.53;1.10;;;;;;;13.78;100.00;98558.66;4211513;28;20237;-71
2023/08/07 00:33:37;;;;;;;7.50;2.10;;;;;;;13.72;100.00;98548.66;4213096;28;20283;-71
2023/08/07 00:36:04;;;;;;;5.50;1.40;;;;;;;13.76;100.00;98530.03;4226945;28;20235;-71
2023/08/07 00:38:30;;;;;;;5.97;1.30;;;;;;;13.73;100.00;98547.59;4221961;28;23245;-70
2023/08/07 00:40:59;;;;;;;4.63;1.20;;;;;;;13.77;100.00;98551.56;4208400;28;20243;-73
2023/08/07 00:43:26;;;;;;;3.10;1.10;;;;;;;13.76;100.00;98544.44;4191007;28;20340;-71
2023/08/07 00:45:53;;;;;;;1.43;1.13;;;;;;;13.76;100.00;98544.44;4206357;28;20224;-69
2023/08/07 00:48:19;;;;;;;1.73;1.00;;;;;;;13.79;100.00;98533.16;4210360;28;20240;-71
2023/08/07 00:50:47;;;;;;;3.10;1.50;;;;;;;13.80;100.00;98528.53;4237282;28;20227;-73
2023/08/07 00:53:14;;;;;;;3.53;1.30;;;;;;;13.74;100.00;98519.38;4201794;28;21661;-71
2023/08/07 00:55:42;;;;;;;1.73;1.10;;;;;;;13.77;100.00;98518.91;4216597;28;20232;-72
2023/08/07 00:58:08;;;;;;;3.27;1.50;;;;;;;13.81;100.00;98527.47;4200324;28;20235;-71
2023/08/07 01:00:35;;;;;;;1.93;1.40;;;;;;;13.78;100.00;98522.50;4215763;28;20231;-71
2023/08/07 01:03:05;;;;;;;2.13;1.60;;;;;;;13.82;100.00;98512.84;4210897;28;20273;-71
2023/08/07 01:05:32;;;;;;;4.13;1.87;;;;;;;13.78;100.00;98517.88;4218658;28;20342;-71
2023/08/07 01:07:59;;;;;;;3.80;1.80;;;;;;;13.75;100.00;98517.47;4207043;28;20444;-72
2023/08/07 01:11:01;;;;;;;5.83;2.63;;;;;;;13.71;100.00;98516.25;4194749;28;20394;-72
2023/08/07 01:13:49;;;;;;;4.53;2.90;;;;;;;13.72;100.00;98517.88;4222191;28;20243;-73
2023/08/07 01:16:22;;;;;;;4.00;3.13;;;;;;;13.66;100.00;98514.16;4224270;28;25635;-71
2023/08/07 01:18:49;;;;;;;4.07;3.07;;;;;;;13.65;100.00;98504.34;4213085;28;20303;-70
2023/08/07 01:21:18;;;;;;;7.17;2.80;;;;;;;13.70;100.00;98512.69;4221359;28;20356;-71
2023/08/07 01:23:48;;;;;;;5.27;3.00;;;;;;;13.67;100.00;98513.09;4215509;28;20805;-71
2023/08/07 01:26:16;;;;;;;6.57;2.87;;;;;;;13.72;100.00;98507.00;4199556;28;20441;-74
2023/08/07 01:28:50;;;;;;;4.17;3.00;;;;;;;13.71;100.00;98505.38;4216421;28;21124;-71
2023/08/07 01:31:18;;;;;;;4.20;3.33;;;;;;;13.60;100.00;98521.28;4206399;28;20638;-71
2023/08/07 01:33:53;;;;;;;4.27;3.07;;;;;;;13.62;100.00;98521.06;4197332;28;22004;-71
2023/08/07 01:36:20;;;;;;;4.67;3.30;;;;;;;13.56;100.00;98517.31;4206981;28;20359;-70
2023/08/07 01:38:49;;;;;;;7.20;2.93;;;;;;;13.55;100.00;98522.97;4201378;28;20283;-70
2023/08/07 01:41:15;;;;;;;7.17;3.57;;;;;;;13.54;100.00;98524.88;4209624;28;20241;-72
2023/08/07 01:43:42;;;;;;;6.03;3.03;;;;;;;13.57;100.00;98526.31;4227271;28;20235;-70
2023/08/07 01:46:10;;;;;;;5.60;2.70;;;;;;;13.62;100.00;98537.38;4224168;28;20243;-71
2023/08/07 01:48:37;;;;;;;7.90;3.67;;;;;;;13.60;100.00;98540.31;4198365;28;20239;-71
2023/08/07 01:51:03;;;;;;;5.37;3.53;;;;;;;13.56;100.00;98549.94;4227568;28;20245;-73
2023/08/07 01:53:30;;;;;;;10.23;3.30;;;;;;;13.57;100.00;98545.34;4195703;28;20673;-71
2023/08/07 01:55:56;;;;;;;4.13;2.63;;;;;;;13.51;100.00;98541.59;4209778;28;20235;-73
2023/08/07 01:58:22;;;;;;;4.83;2.80;;;;;;;13.51;100.00;98544.31;4213259;28;20227;-72
2023/08/07 02:00:49;;;;;;;4.53;2.87;;;;;;;13.46;100.00;98533.25;4228479;28;22225;-72
2023/08/07 02:03:16;;;;;;;6.73;3.10;;;;;;;13.50;100.00;98520.06;4231712;28;20638;-76
2023/08/07 02:05:45;;;;;;;5.23;2.90;;;;;;;13.45;100.00;98505.22;4207474;28;20239;-70
2023/08/07 02:08:12;;;;;;;5.70;2.50;;;;;;;13.43;100.00;98501.91;4211532;28;20258;-71
2023/08/07 02:10:38;;;;;;;4.77;2.30;;;;;;;13.46;100.00;98508.78;4210094;28;20282;-72
2023/08/07 02:13:05;;;;;;;3.10;2.07;;;;;;;13.50;100.00;98507.31;4215440;28;20251;-70
2023/08/07 02:15:32;;;;;;;3.53;1.83;;;;;;;13.43;100.00;98503.78;4225886;28;20545;-71
2023/08/07 02:17:58;;;;;;;3.90;1.90;;;;;;;13.48;100.00;98512.13;4244281;28;20244;-72
2023/08/07 02:20:25;;;;;;;3.53;2.13;;;;;;;13.46;100.00;98506.91;4215921;28;20238;-73
2023/08/07 02:22:51;;;;;;;2.90;2.00;;;;;;;13.44;100.00;98519.84;4213442;28;20474;-70
2023/08/07 02:25:18;;;;;;;3.93;1.93;;;;;;;13.48;100.00;98523.00;4212548;28;20239;-71
2023/08/07 02:27:44;;;;;;;3.73;2.57;;;;;;;13.45;100.00;98537.84;4212338;28;25167;-71
2023/08/07 02:30:11;;;;;;;7.13;2.57;;;;;;;13.49;100.00;98549.13;4220685;28;21159;-73
2023/08/07 02:32:41;;;;;;;3.33;2.37;;;;;;;13.39;100.00;98546.03;4212400;28;20259;-71
2023/08/07 02:35:08;;;;;;;3.67;2.70;;;;;;;13.44;100.00;98559.81;4215768;28;20243;-70
2023/08/07 02:37:35;;;;;;;4.87;2.50;;;;;;;13.45;100.00;98556.03;4217722;28;20233;-70
2023/08/07 02:40:02;;;;;;;5.63;2.60;;;;;;;13.38;100.00;98545.19;4217176;28;21850;-69
2023/08/07 02:42:28;;;;;;;3.87;2.37;;;;;;;13.43;100.00;98541.81;4225366;28;20251;-70
2023/08/07 02:44:55;;;;;;;8.80;2.70;;;;;;;13.28;100.00;98548.31;4222132;28;20236;-70
2023/08/07 02:47:21;;;;;;;3.47;2.50;;;;;;;13.31;100.00;98538.88;4212058;28;20237;-71
2023/08/07 02:49:48;;;;;;;4.50;2.13;;;;;;;13.35;100.00;98539.31;4213011;28;23358;-70
2023/08/07 02:52:14;;;;;;;7.83;2.03;;;;;;;13.26;100.00;98549.56;4214425;28;20297;-72
2023/08/07 02:54:41;;;;;;;4.40;1.90;;;;;;;13.25;100.00;98558.75;4205434;28;21944;-71
2023/08/07 02:57:07;;;;;;;4.60;1.90;;;;;;;13.29;100.00;98570.91;4210170;28;21593;-70
2023/08/07 02:59:37;;;;;;;3.03;1.93;;;;;;;13.24;100.00;98568.81;4216589;28;21844;-72
2023/08/07 03:02:03;;;;;;;4.33;1.80;;;;;;;13.28;100.00;98571.94;4211371;28;20232;-70
2023/08/07 03:04:30;;;;;;;3.40;1.60;;;;;;;13.34;100.00;98568.38;4209661;28;20287;-71
2023/08/07 03:06:56;;;;;;;3.03;1.80;;;;;;;13.34;100.00;98560.22;4206482;28;21377;-74
2023/08/07 03:09:23;;;;;;;3.07;2.00;;;;;;;13.31;100.00;98549.75;4218157;28;20228;-71
2023/08/07 03:11:50;;;;;;;2.30;1.80;;;;;;;13.28;100.00;98550.19;4211754;28;20876;-70
2023/08/07 03:14:17;;;;;;;2.43;2.00;;;;;;;13.32;100.00;98554.16;4204257;28;20318;-70
2023/08/07 03:16:45;;;;;;;2.30;1.83;;;;;;;13.39;99.09;98557.72;4210293;28;21385;-70
2023/08/07 03:19:11;;;;;;;5.10;1.80;;;;;;;13.36;99.20;98560.84;4224047;28;20874;-72
2023/08/07 03:21:38;;;;;;;5.80;2.13;;;;;;;13.34;99.57;98562.09;4215013;28;20232;-72
2023/08/07 03:24:05;;;;;;;4.27;1.90;;;;;;;13.34;99.40;98565.66;4220598;28;20626;-71
2023/08/07 03:26:32;;;;;;;5.93;2.53;;;;;;;13.37;99.28;98569.81;4208571;28;23432;-70
2023/08/07 03:28:58;;;;;;;2.60;1.97;;;;;;;13.32;99.24;98571.31;4217274;28;20236;-72
2023/08/07 03:31:25;;;;;;;2.97;2.00;;;;;;;13.35;99.35;98582.78;4211060;28;20250;-70
2023/08/07 03:33:51;;;;;;;3.40;1.77;;;;;;;13.34;99.04;98584.69;4216971;28;20230;-70
2023/08/07 03:36:18;;;;;;;2.57;1.93;;;;;;;13.35;99.08;98583.63;4208158;28;20368;-72
2023/08/07 03:38:44;;;;;;;3.27;2.30;;;;;;;13.37;98.79;98583.41;4202564;28;20239;-71
2023/08/07 03:41:11;;;;;;;3.07;2.40;;;;;;;13.42;98.78;98595.38;4227550;28;20232;-71
2023/08/07 03:43:38;;;;;;;4.57;2.40;;;;;;;13.47;97.92;98594.72;4212671;28;20287;-74
2023/08/07 03:46:05;;;;;;;2.00;1.80;;;;;;;13.45;98.09;98602.25;4214081;28;20663;-71
2023/08/07 03:48:31;;;;;;;5.67;2.33;;;;;;;13.47;97.96;98603.72;4209179;28;20252;-73
2023/08/07 03:51:05;;;;;;;3.70;2.30;;;;;;;13.45;97.68;98599.53;4208131;28;20232;-71
2023/08/07 03:53:32;;;;;;;5.87;2.10;;;;;;;13.44;96.67;98603.28;4206991;28;22924;-71
2023/08/07 03:55:58;;;;;;;4.43;2.03;;;;;;;13.47;97.29;98616.47;4221918;28;20318;-71
2023/08/07 03:58:25;;;;;;;4.20;2.17;;;;;;;13.47;97.74;98603.72;4213363;28;20567;-74
2023/08/07 04:00:52;;;;;;;3.37;2.30;;;;;;;13.45;98.60;98619.38;4216455;28;20239;-72
2023/08/07 04:03:20;;;;;;;3.87;2.30;;;;;;;13.45;98.98;98616.66;4184523;28;20368;-74
2023/08/07 04:05:46;;;;;;;3.33;2.00;;;;;;;13.37;97.77;98603.25;4209989;28;21595;-71
2023/08/07 04:08:13;;;;;;;3.23;2.33;;;;;;;13.40;97.79;98594.72;4205347;28;20241;-71
2023/08/07 04:10:40;;;;;;;4.47;1.87;;;;;;;13.42;98.05;98589.06;4214408;28;21776;-71
2023/08/07 04:13:06;;;;;;;5.00;2.30;;;;;;;13.43;96.52;98585.31;4205241;28;20295;-72
2023/08/07 04:15:33;;;;;;;5.13;1.77;;;;;;;13.47;96.20;98583.84;4217160;28;20315;-71
2023/08/07 04:18:01;;;;;;;2.50;1.80;;;;;;;13.49;95.40;98591.78;4220720;28;20241;-71
2023/08/07 04:20:27;;;;;;;3.03;2.10;;;;;;;13.60;95.08;98594.69;4228652;28;20241;-72
2023/08/07 04:22:54;;;;;;;2.70;1.60;;;;;;;13.65;94.10;98593.22;4213137;28;20317;-72
2023/08/07 04:25:21;;;;;;;3.80;1.97;;;;;;;13.61;94.42;98592.81;4217582;28;21139;-75
2023/08/07 04:27:47;;;;;;;4.27;1.73;;;;;;;13.64;94.55;98597.81;4233645;28;20311;-72
2023/08/07 04:30:14;;;;;;;3.00;1.53;;;;;;;13.65;94.15;98604.94;4215000;28;20293;-72
2023/08/07 04:32:41;;;;;;;3.87;1.83;;;;;;;13.63;94.31;98607.84;4221076;28;20239;-73
2023/08/07 04:35:08;;;;;;;4.17;1.50;;;;;;;13.71;93.49;98606.81;4246600;28;20395;-73
2023/08/07 04:37:40;;;;;;;3.37;1.40;;;;;;;13.77;92.44;98605.94;4226727;28;20400;-72
2023/08/07 04:40:08;;;;;;;2.00;1.37;;;;;;;13.79;92.52;98605.72;4232417;28;20322;-69
2023/08/07 04:42:35;;;;;;;1.97;1.23;;;;;;;13.79;91.95;98609.28;4223792;28;20231;-73
2023/08/07 04:45:03;;;;;;;3.10;1.30;;;;;;;13.84;91.51;98618.69;4225638;28;23014;-71
2023/08/07 04:47:29;;;;;;;2.90;1.57;;;;;;;13.87;90.79;98629.16;4258390;28;21549;-74
2023/08/07 04:49:56;;;;;;;2.67;1.13;;;;;;;13.91;90.37;98631.22;4253569;28;20268;-74
2023/08/07 04:52:23;;;;;;;1.60;1.17;;;;;;;13.99;89.79;98623.88;4219909;28;23585;-72
2023/08/07 04:54:52;;;;;;;1.87;1.30;;;;;;;14.04;89.37;98621.34;4224199;28;20239;-75
2023/08/07 04:57:19;;;;;;;4.37;1.40;;;;;;;14.00;88.93;98610.06;4194880;28;20256;-71
2023/08/07 04:59:45;;;;;;;1.43;0.93;;;;;;;13.98;89.34;98619.50;4223974;28;21049;-71
2023/08/07 05:02:12;;;;;;;2.10;1.10;;;;;;;13.88;89.94;98628.91;4215789;28;20232;-72
2023/08/07 05:04:39;;;;;;;2.40;0.97;;;;;;;13.93;89.45;98623.66;4222545;28;20231;-71
2023/08/07 05:07:05;;;;;;;4.23;1.13;;;;;;;13.93;90.53;98631.81;4216674;28;25578;-72
2023/08/07 05:09:32;;;;;;;2.93;1.13;;;;;;;14.01;90.48;98625.34;4217788;28;20276;-74
2023/08/07 05:11:58;;;;;;;5.23;1.30;;;;;;;13.88;91.57;98633.53;4209966;28;20230;-72
2023/08/07 05:14:25;;;;;;;2.20;1.40;;;;;;;13.87;92.65;98635.41;4228880;28;20334;-74
2023/08/07 05:16:52;;;;;;;2.60;1.47;;;;;;;13.71;94.75;98633.16;4217133;28;20251;-74
2023/08/07 05:19:18;;;;;;;2.97;1.60;;;;;;;13.74;96.05;98647.19;4209113;28;20232;-70
2023/08/07 05:21:49;;;;;;;6.13;2.47;;;;;;;13.68;97.69;98645.28;4199913;28;20248;-72
2023/08/07 05:24:17;;;;;;;4.20;1.90;;;;;;;13.65;98.17;98644.88;4212880;28;20235;-71
2023/08/07 05:26:44;;;;;;;3.77;1.80;;;;;;;13.56;97.63;98636.09;4213742;28;20236;-69
2023/08/07 05:29:10;;;;;;;2.83;1.90;;;;;;;13.66;97.42;98644.69;4213036;28;22101;-71
2023/08/07 05:31:37;;;;;;;3.60;2.27;;;;;;;13.69;96.71;98646.97;4194497;28;20279;-70
2023/08/07 05:34:04;;;;;;;4.00;2.13;;;;;;;13.66;97.48;98646.53;4211978;28;20238;-69
2023/08/07 05:36:32;;;;;;;4.03;1.90;;;;;;;13.74;96.77;98646.31;4197393;28;20618;-73
2023/08/07 05:38:59;;;;;;;4.30;2.17;;;;;;;13.79;96.97;98639.22;4215251;28;23631;-67
2023/08/07 05:41:25;;;;;;;4.83;1.97;;;;;;;13.83;96.71;98638.75;4206447;28;20303;-72
2023/08/07 05:43:52;;;;;;;5.57;2.60;;;;;;;13.90;96.73;98643.16;4209409;28;20932;-75
2023/08/07 05:46:18;;;;;;;4.90;2.30;;;;;;;13.98;95.37;98654.84;4207013;28;20231;-73
2023/08/07 05:48:45;;;;;;;4.60;2.87;;;;;;;14.06;94.64;98647.28;4211707;28;20228;-74
2023/08/07 05:51:12;;;;;;;4.53;2.17;;;;;;;13.99;95.77;98659.25;4216350;28;21420;-73
2023/08/07 05:53:38;;;;;;;5.97;2.50;;;;;;;14.02;96.49;98650.63;4220737;28;23240;-76
2023/08/07 05:56:05;;;;;;;3.57;2.40;;;;;;;13.82;97.54;98656.97;4216387;28;20238;-75
2023/08/07 05:58:31;;;;;;;4.47;2.67;;;;;;;13.74;98.96;98662.63;4208198;28;20305;-76
2023/08/07 06:00:58;;;;;;;4.13;3.03;;;;;;;13.68;99.16;98648.00;4218645;28;20243;-75
2023/08/07 06:03:25;;;;;;;4.10;2.63;;;;;;;13.59;99.10;98647.41;4216322;28;20278;-76
2023/08/07 06:05:51;;;;;;;5.23;2.87;;;;;;;13.57;98.73;98657.63;4238013;28;20507;-73
2023/08/07 06:08:18;;;;;;;3.53;2.70;;;;;;;13.52;98.91;98653.91;4212558;28;20257;-64
2023/08/07 06:10:45;;;;;;;6.73;3.07;;;;;;;13.53;98.55;98648.25;4218591;28;20247;-66
2023/08/07 06:13:11;;;;;;;5.07;2.70;;;;;;;13.53;98.34;98656.41;4210097;28;21236;-63
2023/08/07 06:15:48;;;;;;;7.80;2.50;;;;;;;13.59;97.36;98662.88;4203709;28;20848;-64
2023/08/07 06:18:15;;;;;;;5.37;2.43;;;;;;;13.62;96.67;98655.16;4206497;28;20236;-65
2023/08/07 06:20:42;;;;;;;5.53;1.73;;;;;;;13.59;95.80;98660.16;4213697;28;20252;-64
2023/08/07 06:23:09;;;;;;;3.37;1.80;;;;;;;13.53;94.82;98658.25;4217381;28;21651;-66
2023/08/07 06:25:35;;;;;;;4.50;2.00;;;;;;;13.57;93.61;98654.91;4220438;28;20240;-73
2023/08/07 06:28:02;;;;;;;2.17;1.70;;;;;;;13.67;93.27;98650.94;4211831;28;20245;-71
2023/08/07 06:30:28;;;;;;;3.87;1.90;;;;;;;13.56;92.58;98645.09;4209282;28;20231;-72
2023/08/07 06:32:55;;;;;;;2.50;1.70;;;;;;;13.59;93.89;98657.44;4220158;28;21286;-71
2023/08/07 06:35:21;;;;;;;3.83;1.80;;;;;;;13.64;94.14;98663.09;4215176;28;20236;-72
2023/08/07 06:37:48;;;;;;;8.17;1.90;;;;;;;13.69;93.09;98668.72;4206153;28;22367;-74
2023/08/07 06:40:15;;;;;;;4.57;1.60;;;;;;;13.70;93.72;98661.41;4212508;28;20232;-73
2023/08/07 06:42:41;;;;;;;2.10;1.67;;;;;;;13.81;93.74;98670.78;4223469;28;20231;-72
2023/08/07 06:45:08;;;;;;;2.03;1.70;;;;;;;13.78;92.62;98670.16;4220225;28;20532;-73
2023/08/07 06:47:35;;;;;;;3.37;1.60;;;;;;;13.95;91.60;98678.69;4205146;28;20244;-70
2023/08/07 06:50:02;;;;;;;4.63;1.57;;;;;;;13.82;91.60;98676.03;4210753;28;21307;-71
2023/08/07 06:52:29;;;;;;;2.30;1.30;;;;;;;13.85;91.37;98680.19;4208715;28;20680;-72
2023/08/07 06:54:55;;;;;;;3.40;1.60;;;;;;;14.11;90.57;98682.00;4233417;28;20755;-69
2023/08/07 06:57:22;;;;;;;2.80;1.30;;;;;;;14.42;90.07;98684.00;4232241;28;20299;-72
2023/08/07 06:59:49;;;;;;;5.60;1.70;;;;;;;14.50;89.47;98682.09;4208110;28;20239;-77
2023/08/07 07:02:15;;;;;;;3.90;1.77;;;;;;;14.65;87.96;98687.25;4235090;28;20615;-72
2023/08/07 07:04:42;;;;;;;3.07;1.80;;;;;;;14.69;87.13;98694.81;4249880;28;24777;-73
2023/08/07 07:07:09;;;;;;;5.33;1.57;;;;;;;14.67;86.26;98687.91;4218678;28;20229;-77
2023/08/07 07:09:36;;;;;;;3.03;1.67;;;;;;;14.74;86.30;98694.16;4216544;28;20258;-75
2023/08/07 07:12:03;;;;;;;2.43;1.33;;;;;;;14.89;85.60;98696.56;4246728;28;20335;-70
2023/08/07 07:14:29;;;;;;;5.47;1.50;;;;;;;15.15;84.71;98697.47;4228241;28;20242;-76
2023/08/07 07:16:56;;;;;;;4.43;1.30;;;;;;;15.10;83.84;98689.94;4221326;28;20236;-72
2023/08/07 07:19:22;;;;;;;3.80;1.40;;;;;;;15.00;83.14;98695.88;4211505;28;21200;-70
2023/08/07 07:21:49;;;;;;;2.00;1.30;;;;;;;15.05;83.00;98684.34;4246477;28;20241;-64
2023/08/07 07:24:16;;;;;;;3.10;1.57;;;;;;;15.05;83.63;98697.97;4233020;28;21019;-70
2023/08/07 07:26:43;;;;;;;2.87;1.53;;;;;;;14.94;85.23;98693.19;4230823;28;20223;-68
2023/08/07 07:29:09;;;;;;;6.37;1.30;;;;;;;15.05;84.60;98696.06;4224351;28;20236;-69
2023/08/07 07:31:36;;;;;;;2.27;1.37;;;;;;;15.00;82.57;98703.22;4243922;28;20306;-71
2023/08/07 07:34:03;;;;;;;3.30;1.63;;;;;;;15.06;82.68;98705.09;4233329;28;22425;-72
2023/08/07 07:36:29;;;;;;;2.30;1.23;;;;;;;14.92;82.64;98717.13;4219466;28;20371;-70
2023/08/07 07:38:56;;;;;;;5.13;1.33;;;;;;;14.83;82.61;98706.47;4223947;28;20318;-70
2023/08/07 07:41:23;;;;;;;3.47;1.47;;;;;;;14.83;82.07;98711.94;4209508;28;20378;-72
2023/08/07 07:43:50;;;;;;;1.77;1.40;;;;;;;14.66;82.14;98724.34;4217290;28;20246;-74
2023/08/07 07:46:17;;;;;;;1.67;1.20;;;;;;;14.57;82.50;98710.97;4216751;28;20241;-72
2023/08/07 07:48:43;;;;;;;4.60;1.47;;;;;;;14.51;83.45;98727.31;4218283;28;20635;-73
2023/08/07 07:51:10;;;;;;;1.70;1.10;;;;;;;14.69;82.95;98719.31;4226822;28;20239;-72
2023/08/07 07:53:37;;;;;;;2.40;1.37;;;;;;;14.65;83.38;98720.75;4227953;28;20244;-71
2023/08/07 07:56:03;;;;;;;2.60;1.50;;;;;;;14.60;83.85;98717.03;4216647;28;22011;-72
2023/08/07 07:58:30;;;;;;;5.00;1.70;;;;;;;14.69;83.57;98721.22;4236633;28;21741;-69
2023/08/07 08:00:56;;;;;;;3.70;1.27;;;;;;;14.63;81.85;98717.44;4226233;28;20239;-72
2023/08/07 08:03:23;;;;;;;7.77;1.37;;;;;;;14.73;81.20;98727.88;4248021;28;21891;-71
2023/08/07 08:05:51;;;;;;;2.83;1.53;;;;;;;14.88;80.81;98724.88;4237057;28;20446;-70
2023/08/07 08:08:18;;;;;;;3.23;1.20;;;;;;;15.30;79.60;98736.16;4249641;28;20447;-70
2023/08/07 08:10:47;;;;;;;3.37;1.10;;;;;;;15.17;77.45;98728.91;4280766;28;20236;-68
2023/08/07 08:13:15;;;;;;;4.77;1.37;;;;;;;15.23;77.53;98727.19;4232814;28;21607;-66
2023/08/07 08:15:42;;;;;;;1.97;1.13;;;;;;;15.18;77.09;98733.31;4214377;28;20224;-68
2023/08/07 08:18:09;;;;;;;2.63;1.40;;;;;;;15.16;77.41;98721.78;4210707;28;20232;-74
2023/08/07 08:20:36;;;;;;;4.47;1.20;;;;;;;15.11;79.03;98731.66;4227502;28;20236;-71
2023/08/07 08:23:03;;;;;;;4.20;1.37;;;;;;;15.12;78.86;98728.72;4208362;28;21705;-71
2023/08/07 08:25:30;;;;;;;9.17;1.33;;;;;;;15.10;78.53;98733.56;4211186;28;20303;-69
2023/08/07 08:27:57;;;;;;;2.20;1.60;;;;;;;14.96;79.06;98740.13;4215144;28;20239;-67
2023/08/07 08:30:23;;;;;;;2.60;1.63;;;;;;;14.82;80.13;98732.03;4207228;28;20291;-67
2023/08/07 08:32:50;;;;;;;2.07;1.20;;;;;;;15.09;79.63;98739.22;4211455;28;22286;-66
2023/08/07 08:35:17;;;;;;;2.83;1.40;;;;;;;15.32;79.64;98747.69;4209352;28;20241;-69
2023/08/07 08:37:43;;;;;;;3.73;1.70;;;;;;;15.34;78.61;98750.19;4214175;28;20293;-73
2023/08/07 08:40:12;;;;;;;3.40;1.20;;;;;;;15.19;79.13;98759.50;4215519;28;20232;-69
2023/08/07 08:42:42;;;;;;;2.13;1.20;;;;;;;15.23;78.68;98765.34;4209910;28;20240;-66
2023/08/07 08:45:12;;;;;;;2.60;1.20;;;;;;;15.16;79.53;98761.84;4241622;28;20933;-68
2023/08/07 08:47:40;;;;;;;1.70;1.17;;;;;;;15.42;76.99;98747.19;4244653;28;20236;-67
2023/08/07 08:50:09;;;;;;;4.50;1.10;;;;;;;15.52;76.86;98750.25;4227382;28;20243;-72
2023/08/07 08:52:38;;;;;;;2.67;1.23;;;;;;;15.55;76.46;98735.34;4237805;28;20277;-68
2023/08/07 08:55:06;;;;;;;3.40;0.97;;;;;;;15.77;75.64;98730.31;4233031;28;20461;-70
2023/08/07 08:57:33;;;;;;;4.07;1.10;;;;;;;15.88;74.87;98731.53;4230011;28;20234;-71
2023/08/07 09:00:13;;;;;;;4.00;1.07;;;;;;;15.73;73.95;98731.84;4227363;28;20607;-71
2023/08/07 09:02:39;;;;;;;5.67;1.10;;;;;;;16.01;73.41;98741.47;4236850;28;21268;-71
2023/08/07 09:05:07;;;;;;;5.03;1.40;;;;;;;16.61;70.51;98740.00;4221627;28;20247;-69
2023/08/07 09:07:35;;;;;;;2.00;1.07;;;;;;;16.92;69.31;98746.34;4235470;28;21058;-73
2023/08/07 09:10:02;;;;;;;1.87;0.93;;;;;;;17.02;67.88;98732.13;4222583;28;20346;-69
2023/08/07 09:12:32;;;;;;;2.87;1.20;;;;;;;17.14;68.62;98752.19;4202707;28;20326;-69
2023/08/07 09:15:00;;;;;;;3.27;1.10;;;;;;;16.94;66.84;98747.78;4230024;28;21732;-76
2023/08/07 09:18:15;;;;;;;3.13;1.03;;;;;;;17.53;66.30;98763.56;4249220;28;20568;-64
2023/08/07 09:20:42;;;;;;;2.23;0.90;;;;;;;17.48;65.68;98776.31;4237817;28;22877;-71
2023/08/07 09:23:09;;;;;;;3.13;1.10;;;;;;;17.24;65.57;98782.50;4224614;28;20231;-69
2023/08/07 09:25:35;;;;;;;3.27;1.13;;;;;;;17.59;64.38;98780.97;4228838;28;20234;-65
2023/08/07 09:28:05;;;;;;;4.07;1.00;;;;;;;17.79;62.80;98793.50;4247697;28;20673;-67
2023/08/07 09:30:35;;;;;;;7.10;1.10;;;;;;;17.37;63.70;98789.69;4240943;28;25225;-69
2023/08/07 09:33:02;;;;;;;2.27;0.90;;;;;;;17.93;63.97;98799.56;4240836;28;20392;-66
2023/08/07 09:35:31;;;;;;;3.77;0.67;;;;;;;18.18;62.48;98799.38;4227389;28;20649;-69
2023/08/07 09:37:58;;;;;;;3.13;1.00;;;;;;;18.05;62.07;98815.00;4263698;28;20278;-67
2023/08/07 09:40:25;;;;;;;8.20;1.07;;;;;;;17.60;64.10;98825.59;4220397;28;20654;-68
2023/08/07 09:42:53;;;;;;;4.40;0.60;;;;;;;17.41;65.08;98837.38;4245366;28;20849;-68
2023/08/07 09:45:27;;;;;;;2.77;0.93;;;;;;;17.17;64.28;98831.00;4248485;28;20243;-67
2023/08/07 09:48:01;;;;;;;3.47;0.73;;;;;;;17.37;64.09;98846.31;4264870;28;20635;-67
2023/08/07 09:50:29;;;;;;;4.73;0.90;;;;;;;17.30;63.89;98853.75;4232745;28;22445;-67
2023/08/07 09:52:57;;;;;;;1.30;0.60;;;;;;;17.15;64.48;98852.25;4216273;28;20412;-68
2023/08/07 09:55:25;;;;;;;4.60;0.87;;;;;;;17.21;64.65;98845.03;4231484;28;20530;-69
2023/08/07 09:57:52;;;;;;;4.87;0.90;;;;;;;17.53;63.78;98848.38;4228495;28;20401;-68
2023/08/07 10:00:20;;;;;;;2.17;0.73;;;;;;;17.75;62.36;98842.38;4249456;28;20332;-66
2023/08/07 10:02:48;;;;;;;1.00;0.70;;;;;;;17.70;62.18;98853.19;4228905;28;20304;-71
2023/08/07 10:05:16;;;;;;;1.63;0.80;;;;;;;18.05;62.31;98841.56;4241328;28;20400;-68
2023/08/07 10:07:43;;;;;;;1.83;0.80;;;;;;;18.52;61.50;98843.47;4203299;28;20227;-68
2023/08/07 10:10:10;;;;;;;3.20;0.90;;;;;;;18.64;60.93;98838.00;4214271;28;20295;-66
2023/08/07 10:12:38;;;;;;;2.30;0.60;;;;;;;18.61;60.25;98831.09;4227179;28;20381;-66
2023/08/07 10:15:05;;;;;;;1.53;0.93;;;;;;;18.26;60.77;98828.34;4246955;28;20242;-69
2023/08/07 10:17:33;;;;;;;2.23;0.93;;;;;;;18.13;60.22;98841.19;4235388;28;20235;-69
2023/08/07 10:20:01;;;;;;;2.63;1.20;;;;;;;17.95;60.52;98836.63;4218907;28;22973;-68
2023/08/07 10:22:30;;;;;;;3.73;1.00;;;;;;;17.84;61.42;98842.91;4198269;28;20381;-68
2023/08/07 10:25:01;;;;;;;3.97;1.00;;;;;;;17.89;62.14;98856.72;4223915;28;20243;-67
2023/08/07 10:27:33;;;;;;;5.13;1.20;;;;;;;18.13;61.52;98841.19;4216978;28;20227;-66
2023/08/07 10:30:06;;;;;;;2.63;1.13;;;;;;;18.30;61.47;98840.47;4192963;28;22111;-67
2023/08/07 10:32:33;;;;;;;1.20;0.90;;;;;;;17.96;61.65;98845.69;4200375;28;20479;-65
2023/08/07 10:35:04;;;;;;;5.27;2.70;;;;;;;17.92;62.05;98841.72;4224099;28;20314;-67
2023/08/07 10:37:45;;;;;;;1.90;0.97;;;;;;;18.48;60.88;98842.25;4189118;28;25431;-68
2023/08/07 10:40:12;;;;;;;4.43;1.00;;;;;;;18.08;61.24;98835.59;4209296;28;20243;-67
2023/08/07 10:43:12;;;;;;;3.40;1.00;;;;;;;18.04;62.24;98851.66;4221816;28;20528;-68
2023/08/07 10:45:39;;;;;;;4.13;1.07;;;;;;;17.99;60.32;98853.41;4182931;28;20244;-65
2023/08/07 10:48:07;;;;;;;1.93;1.10;;;;;;;17.87;61.04;98854.22;4200169;28;20246;-66
2023/08/07 10:50:57;;;;;;;2.50;1.30;;;;;;;17.99;61.98;98843.31;4201573;28;20236;-67
2023/08/07 10:53:31;;;;;;;3.27;0.83;;;;;;;17.82;62.82;98858.72;4217185;28;21210;-67
2023/08/07 10:56:07;;;;;;;3.00;1.27;;;;;;;18.08;61.05;98859.41;4231022;28;20592;-68
2023/08/07 10:58:40;;;;;;;2.60;0.93;;;;;;;17.84;61.79;98843.72;4190668;28;20282;-70
2023/08/07 11:01:21;;;;;;;2.50;1.10;;;;;;;18.10;60.94;98846.28;4203017;28;20334;-65
2023/08/07 11:03:52;;;;;;;4.67;1.60;;;;;;;18.05;60.92;98853.31;4221518;28;20243;-66
2023/08/07 11:06:28;;;;;;;1.50;0.90;;;;;;;18.07;59.38;98855.81;4215882;28;23668;-68
2023/08/07 11:08:55;;;;;;;1.63;0.80;;;;;;;18.11;59.78;98848.81;4197957;28;20256;-69
2023/08/07 11:11:22;;;;;;;3.27;0.70;;;;;;;17.84;59.85;98860.13;4184574;28;20803;-67
2023/08/07 11:13:48;;;;;;;1.57;1.10;;;;;;;17.87;60.15;98864.31;4218392;28;20241;-65
2023/08/07 11:16:15;;;;;;;2.90;0.90;;;;;;;17.97;60.36;98875.56;4210631;28;23559;-66
2023/08/07 11:18:42;;;;;;;3.63;0.70;;;;;;;18.07;59.31;98872.25;4194727;28;23390;-67
2023/08/07 11:21:13;;;;;;;3.17;1.07;;;;;;;18.13;59.09;98867.75;4204814;28;20231;-64
2023/08/07 11:23:40;;;;;;;2.77;1.10;;;;;;;18.34;58.50;98880.88;4208280;28;20245;-63
2023/08/07 11:26:09;;;;;;;1.47;0.80;;;;;;;18.66;58.39;98869.56;4207691;28;20244;-64
2023/08/07 11:28:35;;;;;;;2.20;0.80;;;;;;;19.22;56.98;98874.59;4230025;28;21930;-66
2023/08/07 11:31:02;;;;;;;3.17;1.10;;;;;;;19.19;57.12;98869.63;4204059;28;20229;-66
2023/08/07 11:33:29;;;;;;;2.27;0.90;;;;;;;18.95;55.61;98872.41;4222535;28;21283;-68
2023/08/07 11:35:56;;;;;;;2.27;0.90;;;;;;;18.90;56.08;98863.22;4216545;28;22566;-69